sensor_id;sensor_type;location;lat;lon;timestamp;pressure;altitude;pressure_sealevel;temperature;humidity
72061;BME280;59925;52.136;5.420;2024-02-23T00:02:10;98738.94;;;3.71;100.00
72061;BME280;59925;52.136;5.420;2024-02-23T00:04:37;98750.06;;;3.73;100.00
72061;BME280;59925;52.136;5.420;2024-02-23T00:07:03;98759.06;;;3.77;100.00
72061;BME280;59925;52.136;5.420;2024-02-23T00:09:30;98751.09;;;3.82;100.00
72061;BME280;59925;52.136;5.420;2024-02-23T00:11:57;98759.25;;;3.86;100.00
72061;BME280;59925;52.136;5.420;2024-02-23T00:14:23;98762.16;;;3.90;100.00
72061;BME280;59925;52.136;5.420;2024-02-23T00:16:51;98760.53;;;3.94;100.00
72061;BME280;59925;52.136;5.420;2024-02-23T00:19:17;98765.78;;;3.99;100.00
72061;BME280;59925;52.136;5.420;2024-02-23T00:21:46;98763.63;;;4.06;100.00
72061;BME280;59925;52.136;5.420;2024-02-23T00:24:16;98773.69;;;4.09;100.00
72061;BME280;59925;52.136;5.420;2024-02-23T00:26:43;98767.81;;;4.12;100.00
72061;BME280;59925;52.136;5.420;2024-02-23T00:29:10;98777.34;;;4.13;100.00
72061;BME280;59925;52.136;5.420;2024-02-23T00:31:40;98772.56;;;4.16;100.00
72061;BME280;59925;52.136;5.420;2024-02-23T00:34:11;98782.63;;;4.19;100.00
72061;BME280;59925;52.136;5.420;2024-02-23T00:36:40;98786.59;;;4.21;100.00
72061;BME280;59925;52.136;5.420;2024-02-23T00:39:08;98777.56;;;4.22;100.00
72061;BME280;59925;52.136;5.420;2024-02-23T00:41:35;98784.16;;;4.25;100.00
72061;BME280;59925;52.136;5.420;2024-02-23T00:44:02;98791.84;;;4.26;100.00
72061;BME280;59925;52.136;5.420;2024-02-23T00:46:29;98787.06;;;4.28;100.00
72061;BME280;59925;52.136;5.420;2024-02-23T00:48:56;98794.75;;;4.30;100.00
72061;BME280;59925;52.136;5.420;2024-02-23T00:51:22;98797.38;;;4.35;100.00
72061;BME280;59925;52.136;5.420;2024-02-23T00:53:49;98796.00;;;4.38;100.00
72061;BME280;59925;52.136;5.420;2024-02-23T00:56:15;98801.84;;;4.40;100.00
72061;BME280;59925;52.136;5.420;2024-02-23T00:58:42;98806.31;;;4.44;100.00
72061;BME280;59925;52.136;5.420;2024-02-23T01:01:08;98812.38;;;4.45;100.00
72061;BME280;59925;52.136;5.420;2024-02-23T01:03:35;98812.38;;;4.45;100.00
72061;BME280;59925;52.136;5.420;2024-02-23T01:06:01;98816.91;;;4.44;100.00
72061;BME280;59925;52.136;5.420;2024-02-23T01:08:28;98814.03;;;4.41;100.00
72061;BME280;59925;52.136;5.420;2024-02-23T01:10:55;98841.34;;;4.41;100.00
72061;BME280;59925;52.136;5.420;2024-02-23T01:13:21;98848.78;;;4.39;100.00
72061;BME280;59925;52.136;5.420;2024-02-23T01:15:48;98841.97;;;4.28;100.00
72061;BME280;59925;52.136;5.420;2024-02-23T01:18:14;98843.13;;;4.17;100.00
72061;BME280;59925;52.136;5.420;2024-02-23T01:20:41;98854.56;;;4.12;100.00
72061;BME280;59925;52.136;5.420;2024-02-23T01:23:07;98851.69;;;4.03;100.00
72061;BME280;59925;52.136;5.420;2024-02-23T01:25:34;98847.22;;;3.98;100.00
72061;BME280;59925;52.136;5.420;2024-02-23T01:28:02;98867.38;;;3.94;100.00
72061;BME280;59925;52.136;5.420;2024-02-23T01:30:29;98857.34;;;3.86;100.00
72061;BME280;59925;52.136;5.420;2024-02-23T01:32:56;98863.47;;;3.81;100.00
72061;BME280;59925;52.136;5.420;2024-02-23T01:35:23;98869.31;;;3.83;100.00
72061;BME280;59925;52.136;5.420;2024-02-23T01:37:49;98873.78;;;3.88;100.00
72061;BME280;59925;52.136;5.420;2024-02-23T01:40:16;98895.78;;;3.89;100.00
72061;BME280;59925;52.136;5.420;2024-02-23T01:42:43;98884.38;;;3.88;100.00
72061;BME280;59925;52.136;5.420;2024-02-23T01:45:09;98862.38;;;3.88;100.00
72061;BME280;59925;52.136;5.420;2024-02-23T01:47:36;98875.91;;;3.86;100.00
72061;BME280;59925;52.136;5.420;2024-02-23T01:50:03;98884.13;;;3.84;100.00
72061;BME280;59925;52.136;5.420;2024-02-23T01:52:30;98896.31;;;3.86;100.00
72061;BME280;59925;52.136;5.420;2024-02-23T01:54:56;98912.47;;;3.89;100.00
72061;BME280;59925;52.136;5.420;2024-02-23T01:57:23;98898.41;;;3.94;100.00
72061;BME280;59925;52.136;5.420;2024-02-23T02:00:11;98909.25;;;3.97;100.00
72061;BME280;59925;52.136;5.420;2024-02-23T02:02:39;98909.25;;;4.03;100.00
72061;BME280;59925;52.136;5.420;2024-02-23T02:05:06;98907.59;;;4.07;100.00
72061;BME280;59925;52.136;5.420;2024-02-23T02:07:34;98912.38;;;4.10;100.00
72061;BME280;59925;52.136;5.420;2024-02-23T02:10:00;98924.56;;;4.11;100.00
72061;BME280;59925;52.136;5.420;2024-02-23T02:12:27;98921.63;;;4.12;100.00
72061;BME280;59925;52.136;5.420;2024-02-23T02:14:54;98925.09;;;4.13;100.00
72061;BME280;59925;52.136;5.420;2024-02-23T02:17:22;98918.19;;;4.12;100.00
72061;BME280;59925;52.136;5.420;2024-02-23T02:19:48;98923.75;;;4.10;100.00
72061;BME280;59925;52.136;5.420;2024-02-23T02:22:15;98912.91;;;4.07;100.00
72061;BME280;59925;52.136;5.420;2024-02-23T02:24:41;98924.31;;;4.07;100.00
72061;BME280;59925;52.136;5.420;2024-02-23T02:27:10;98912.66;;;4.03;100.00
72061;BME280;59925;52.136;5.420;2024-02-23T02:29:36;98917.97;;;4.03;100.00
72061;BME280;59925;52.136;5.420;2024-02-23T02:32:04;98923.28;;;3.98;100.00
72061;BME280;59925;52.136;5.420;2024-02-23T02:34:30;98924.38;;;3.97;100.00
72061;BME280;59925;52.136;5.420;2024-02-23T02:36:57;98910.84;;;3.93;100.00
72061;BME280;59925;52.136;5.420;2024-02-23T02:39:23;98924.09;;;3.93;100.00
72061;BME280;59925;52.136;5.420;2024-02-23T02:41:50;98929.41;;;3.93;100.00
72061;BME280;59925;52.136;5.420;2024-02-23T02:44:17;98926.50;;;3.90;100.00
72061;BME280;59925;52.136;5.420;2024-02-23T02:46:43;98918.03;;;3.88;100.00
72061;BME280;59925;52.136;5.420;2024-02-23T02:49:12;98924.69;;;3.85;100.00
72061;BME280;59925;52.136;5.420;2024-02-23T02:51:38;98936.06;;;3.86;100.00
72061;BME280;59925;52.136;5.420;2024-02-23T02:54:05;98939.78;;;3.84;100.00
72061;BME280;59925;52.136;5.420;2024-02-23T02:56:32;98940.88;;;3.83;100.00
72061;BME280;59925;52.136;5.420;2024-02-23T02:58:58;98934.22;;;3.86;100.00
72061;BME280;59925;52.136;5.420;2024-02-23T03:01:25;98937.13;;;3.84;100.00
72061;BME280;59925;52.136;5.420;2024-02-23T03:03:52;98934.75;;;3.83;100.00
72061;BME280;59925;52.136;5.420;2024-02-23T03:06:19;98931.81;;;3.84;100.00
72061;BME280;59925;52.136;5.420;2024-02-23T03:08:45;98934.47;;;3.84;100.00
72061;BME280;59925;52.136;5.420;2024-02-23T03:11:12;98949.88;;;3.82;100.00
72061;BME280;59925;52.136;5.420;2024-02-23T03:13:38;98944.31;;;3.84;100.00
72061;BME280;59925;52.136;5.420;2024-02-23T03:16:05;98949.59;;;3.84;100.00
72061;BME280;59925;52.136;5.420;2024-02-23T03:18:31;98957.84;;;3.82;100.00
72061;BME280;59925;52.136;5.420;2024-02-23T03:20:58;98956.50;;;3.80;100.00
72061;BME280;59925;52.136;5.420;2024-02-23T03:23:24;98965.78;;;3.82;100.00
72061;BME280;59925;52.136;5.420;2024-02-23T03:25:51;98954.91;;;3.79;100.00
72061;BME280;59925;52.136;5.420;2024-02-23T03:28:17;98946.47;;;3.77;100.00
72061;BME280;59925;52.136;5.420;2024-02-23T03:30:44;98963.16;;;3.77;100.00
72061;BME280;59925;52.136;5.420;2024-02-23T03:33:10;98967.38;;;3.73;100.00
72061;BME280;59925;52.136;5.420;2024-02-23T03:35:37;98965.78;;;3.77;100.00
72061;BME280;59925;52.136;5.420;2024-02-23T03:38:04;98975.63;;;3.77;100.00
72061;BME280;59925;52.136;5.420;2024-02-23T03:40:30;98969.50;;;3.71;100.00
72061;BME280;59925;52.136;5.420;2024-02-23T03:42:57;98972.97;;;3.66;100.00
72061;BME280;59925;52.136;5.420;2024-02-23T03:45:24;98977.25;;;3.62;100.00
72061;BME280;59925;52.136;5.420;2024-02-23T03:47:50;98994.19;;;3.61;100.00
72061;BME280;59925;52.136;5.420;2024-02-23T03:50:17;98990.22;;;3.59;100.00
72061;BME280;59925;52.136;5.420;2024-02-23T03:52:43;98991.81;;;3.60;100.00
72061;BME280;59925;52.136;5.420;2024-02-23T03:55:10;98984.38;;;3.62;100.00
72061;BME280;59925;52.136;5.420;2024-02-23T03:57:37;98982.78;;;3.61;100.00
72061;BME280;59925;52.136;5.420;2024-02-23T04:00:04;98986.78;;;3.58;100.00
72061;BME280;59925;52.136;5.420;2024-02-23T04:02:32;98984.91;;;3.59;100.00
72061;BME280;59925;52.136;5.420;2024-02-23T04:04:59;98989.44;;;3.58;100.00
72061;BME280;59925;52.136;5.420;2024-02-23T04:07:25;98982.00;;;3.55;100.00
72061;BME280;59925;52.136;5.420;2024-02-23T04:09:52;98986.53;;;3.55;100.00
72061;BME280;59925;52.136;5.420;2024-02-23T04:12:21;98999.25;;;3.52;100.00
72061;BME280;59925;52.136;5.420;2024-02-23T04:14:48;98990.50;;;3.52;100.00
72061;BME280;59925;52.136;5.420;2024-02-23T04:17:15;98998.72;;;3.50;100.00
72061;BME280;59925;52.136;5.420;2024-02-23T04:19:41;98995.53;;;3.48;100.00
72061;BME280;59925;52.136;5.420;2024-02-23T04:22:08;99002.72;;;3.48;100.00
72061;BME280;59925;52.136;5.420;2024-02-23T04:24:38;99000.31;;;3.46;100.00
72061;BME280;59925;52.136;5.420;2024-02-23T04:27:05;99001.38;;;3.45;100.00
72061;BME280;59925;52.136;5.420;2024-02-23T04:29:32;99013.56;;;3.46;100.00
72061;BME280;59925;52.136;5.420;2024-02-23T04:32:00;99008.00;;;3.48;100.00
72061;BME280;59925;52.136;5.420;2024-02-23T04:34:27;99009.59;;;3.49;100.00
72061;BME280;59925;52.136;5.420;2024-02-23T04:36:55;99017.78;;;3.47;100.00
72061;BME280;59925;52.136;5.420;2024-02-23T04:39:21;99015.13;;;3.47;100.00
72061;BME280;59925;52.136;5.420;2024-02-23T04:41:48;99024.69;;;3.43;100.00
72061;BME280;59925;52.136;5.420;2024-02-23T04:44:14;99021.00;;;3.39;100.00
72061;BME280;59925;52.136;5.420;2024-02-23T04:46:41;99028.41;;;3.42;100.00
72061;BME280;59925;52.136;5.420;2024-02-23T04:49:07;99031.59;;;3.39;100.00
72061;BME280;59925;52.136;5.420;2024-02-23T04:51:34;99039.25;;;3.41;100.00
72061;BME280;59925;52.136;5.420;2024-02-23T04:54:00;99033.72;;;3.42;100.00
72061;BME280;59925;52.136;5.420;2024-02-23T04:56:27;99029.72;;;3.45;100.00
72061;BME280;59925;52.136;5.420;2024-02-23T04:58:53;99033.97;;;3.46;100.00
72061;BME280;59925;52.136;5.420;2024-02-23T05:01:20;99044.81;;;3.49;100.00
72061;BME280;59925;52.136;5.420;2024-02-23T05:03:47;99042.69;;;3.51;100.00
72061;BME280;59925;52.136;5.420;2024-02-23T05:06:14;99034.22;;;3.55;100.00
72061;BME280;59925;52.136;5.420;2024-02-23T05:08:40;99041.13;;;3.56;100.00
72061;BME280;59925;52.136;5.420;2024-02-23T05:11:07;99043.22;;;3.59;100.00
72061;BME280;59925;52.136;5.420;2024-02-23T05:13:34;99044.03;;;3.59;100.00
72061;BME280;59925;52.136;5.420;2024-02-23T05:16:00;99037.38;;;3.62;100.00
72061;BME280;59925;52.136;5.420;2024-02-23T05:18:27;99031.84;;;3.63;100.00
72061;BME280;59925;52.136;5.420;2024-02-23T05:20:53;99027.31;;;3.64;100.00
72061;BME280;59925;52.136;5.420;2024-02-23T05:23:20;99032.63;;;3.64;100.00
72061;BME280;59925;52.136;5.420;2024-02-23T05:25:47;99044.81;;;3.65;100.00
72061;BME280;59925;52.136;5.420;2024-02-23T05:28:13;99031.28;;;3.66;100.00
72061;BME280;59925;52.136;5.420;2024-02-23T05:30:40;99034.22;;;3.70;100.00
72061;BME280;59925;52.136;5.420;2024-02-23T05:33:07;99025.97;;;3.72;100.00
72061;BME280;59925;52.136;5.420;2024-02-23T05:35:34;99034.19;;;3.75;100.00
72061;BME280;59925;52.136;5.420;2024-02-23T05:38:01;99031.28;;;3.77;100.00
72061;BME280;59925;52.136;5.420;2024-02-23T05:40:28;99033.66;;;3.78;100.00
72061;BME280;59925;52.136;5.420;2024-02-23T05:42:54;99032.59;;;3.79;100.00
72061;BME280;59925;52.136;5.420;2024-02-23T05:45:21;99038.16;;;3.83;100.00
72061;BME280;59925;52.136;5.420;2024-02-23T05:47:49;99042.38;;;3.84;100.00
72061;BME280;59925;52.136;5.420;2024-02-23T05:50:15;99040.28;;;3.86;100.00
72061;BME280;59925;52.136;5.420;2024-02-23T05:52:42;99037.63;;;3.86;100.00
72061;BME280;59925;52.136;5.420;2024-02-23T05:55:09;99026.19;;;3.86;100.00
72061;BME280;59925;52.136;5.420;2024-02-23T05:57:36;99033.09;;;3.87;100.00
72061;BME280;59925;52.136;5.420;2024-02-23T06:00:03;99028.31;;;3.89;100.00
72061;BME280;59925;52.136;5.420;2024-02-23T06:02:30;99036.03;;;3.90;100.00
72061;BME280;59925;52.136;5.420;2024-02-23T06:04:56;99036.81;;;3.91;100.00
72061;BME280;59925;52.136;5.420;2024-02-23T06:07:23;99032.81;;;3.93;100.00
72061;BME280;59925;52.136;5.420;2024-02-23T06:09:55;99027.78;;;3.97;100.00
72061;BME280;59925;52.136;5.420;2024-02-23T06:12:23;99026.69;;;3.98;100.00
72061;BME280;59925;52.136;5.420;2024-02-23T06:14:50;99044.47;;;4.03;100.00
72061;BME280;59925;52.136;5.420;2024-02-23T06:17:17;99031.22;;;4.03;100.00
72061;BME280;59925;52.136;5.420;2024-02-23T06:19:44;99040.72;;;4.04;100.00
72061;BME280;59925;52.136;5.420;2024-02-23T06:22:11;99038.34;;;4.07;100.00
72061;BME280;59925;52.136;5.420;2024-02-23T06:24:38;99036.50;;;4.08;100.00
72061;BME280;59925;52.136;5.420;2024-02-23T06:27:05;99045.25;;;4.08;100.00
72061;BME280;59925;52.136;5.420;2024-02-23T06:29:31;99044.97;;;4.10;100.00
72061;BME280;59925;52.136;5.420;2024-02-23T06:31:58;99048.41;;;4.16;100.00
72061;BME280;59925;52.136;5.420;2024-02-23T06:34:27;99052.63;;;4.17;100.00
72061;BME280;59925;52.136;5.420;2024-02-23T06:36:54;99067.22;;;4.19;100.00
72061;BME280;59925;52.136;5.420;2024-02-23T06:39:20;99051.03;;;4.21;100.00
72061;BME280;59925;52.136;5.420;2024-02-23T06:41:47;99055.78;;;4.24;100.00
72061;BME280;59925;52.136;5.420;2024-02-23T06:44:13;99057.66;;;4.28;100.00
72061;BME280;59925;52.136;5.420;2024-02-23T06:46:40;99060.03;;;4.30;100.00
72061;BME280;59925;52.136;5.420;2024-02-23T06:49:07;99068.50;;;4.32;100.00
72061;BME280;59925;52.136;5.420;2024-02-23T06:51:34;99049.41;;;4.35;100.00
72061;BME280;59925;52.136;5.420;2024-02-23T06:54:00;99049.38;;;4.40;100.00
72061;BME280;59925;52.136;5.420;2024-02-23T06:56:27;99054.66;;;4.40;100.00
72061;BME280;59925;52.136;5.420;2024-02-23T06:58:53;99051.75;;;4.42;100.00
72061;BME280;59925;52.136;5.420;2024-02-23T07:01:20;99063.16;;;4.42;100.00
72061;BME280;59925;52.136;5.420;2024-02-23T07:03:47;99046.16;;;4.43;100.00
72061;BME280;59925;52.136;5.420;2024-02-23T07:06:17;99042.16;;;4.46;100.00
72061;BME280;59925;52.136;5.420;2024-02-23T07:08:45;99041.91;;;4.48;100.00
72061;BME280;59925;52.136;5.420;2024-02-23T07:11:12;99053.06;;;4.50;100.00
72061;BME280;59925;52.136;5.420;2024-02-23T07:13:42;99056.78;;;4.49;100.00
72061;BME280;59925;52.136;5.420;2024-02-23T07:16:09;99069.75;;;4.50;100.00
72061;BME280;59925;52.136;5.420;2024-02-23T07:18:35;99054.06;;;4.54;100.00
72061;BME280;59925;52.136;5.420;2024-02-23T07:21:02;99059.91;;;4.56;100.00
72061;BME280;59925;52.136;5.420;2024-02-23T07:23:29;99062.56;;;4.56;100.00
72061;BME280;59925;52.136;5.420;2024-02-23T07:25:55;99056.72;;;4.59;100.00
72061;BME280;59925;52.136;5.420;2024-02-23T07:28:22;99050.88;;;4.62;100.00
72061;BME280;59925;52.136;5.420;2024-02-23T07:30:49;99044.22;;;4.65;100.00
72061;BME280;59925;52.136;5.420;2024-02-23T07:33:16;99055.88;;;4.69;100.00
72061;BME280;59925;52.136;5.420;2024-02-23T07:35:43;99057.97;;;4.72;100.00
72061;BME280;59925;52.136;5.420;2024-02-23T07:38:09;99049.22;;;4.71;100.00
72061;BME280;59925;52.136;5.420;2024-02-23T07:40:36;99045.22;;;4.74;100.00
72061;BME280;59925;52.136;5.420;2024-02-23T07:43:02;99043.09;;;4.76;100.00
72061;BME280;59925;52.136;5.420;2024-02-23T07:45:29;99030.34;;;4.78;100.00
72061;BME280;59925;52.136;5.420;2024-02-23T07:47:55;99028.72;;;4.82;100.00
72061;BME280;59925;52.136;5.420;2024-02-23T07:50:22;99037.44;;;4.88;100.00
72061;BME280;59925;52.136;5.420;2024-02-23T07:52:49;99019.63;;;4.94;100.00
72061;BME280;59925;52.136;5.420;2024-02-23T07:55:15;99027.00;;;4.97;100.00
72061;BME280;59925;52.136;5.420;2024-02-23T07:57:43;99015.06;;;4.99;100.00
72061;BME280;59925;52.136;5.420;2024-02-23T08:00:10;99015.59;;;5.01;100.00
72061;BME280;59925;52.136;5.420;2024-02-23T08:02:36;99022.75;;;5.01;100.00
72061;BME280;59925;52.136;5.420;2024-02-23T08:05:03;99012.13;;;5.01;100.00
72061;BME280;59925;52.136;5.420;2024-02-23T08:07:30;99030.16;;;5.04;100.00
72061;BME280;59925;52.136;5.420;2024-02-23T08:09:57;99016.06;;;5.03;100.00
72061;BME280;59925;52.136;5.420;2024-02-23T08:12:24;99006.81;;;5.01;100.00
72061;BME280;59925;52.136;5.420;2024-02-23T08:14:51;99008.91;;;5.04;100.00
72061;BME280;59925;52.136;5.420;2024-02-23T08:17:19;99012.88;;;5.06;100.00
72061;BME280;59925;52.136;5.420;2024-02-23T08:19:46;99018.41;;;5.10;100.00
72061;BME280;59925;52.136;5.420;2024-02-23T08:22:13;99028.78;;;5.12;100.00
72061;BME280;59925;52.136;5.420;2024-02-23T08:24:40;99009.13;;;5.13;100.00
72061;BME280;59925;52.136;5.420;2024-02-23T08:27:06;99014.16;;;5.14;100.00
72061;BME280;59925;52.136;5.420;2024-02-23T08:29:33;99012.56;;;5.13;100.00
72061;BME280;59925;52.136;5.420;2024-02-23T08:31:59;99013.38;;;5.14;100.00
72061;BME280;59925;52.136;5.420;2024-02-23T08:34:26;98999.28;;;5.13;100.00
72061;BME280;59925;52.136;5.420;2024-02-23T08:36:52;99024.00;;;5.14;100.00
72061;BME280;59925;52.136;5.420;2024-02-23T08:39:19;99002.22;;;5.12;100.00
72061;BME280;59925;52.136;5.420;2024-02-23T08:41:48;99004.88;;;5.12;100.00
72061;BME280;59925;52.136;5.420;2024-02-23T08:44:15;98993.44;;;5.11;100.00
72061;BME280;59925;52.136;5.420;2024-02-23T08:46:41;98994.25;;;5.12;100.00
72061;BME280;59925;52.136;5.420;2024-02-23T08:49:08;98992.38;;;5.12;100.00
72061;BME280;59925;52.136;5.420;2024-02-23T08:51:35;98981.75;;;5.12;100.00
72061;BME280;59925;52.136;5.420;2024-02-23T08:54:02;98987.06;;;5.12;100.00
72061;BME280;59925;52.136;5.420;2024-02-23T08:56:31;98990.53;;;5.13;100.00
72061;BME280;59925;52.136;5.420;2024-02-23T08:58:58;99002.53;;;5.05;100.00
72061;BME280;59925;52.136;5.420;2024-02-23T09:01:25;98992.47;;;5.02;100.00
72061;BME280;59925;52.136;5.420;2024-02-23T09:03:51;98999.66;;;5.01;100.00
72061;BME280;59925;52.136;5.420;2024-02-23T09:06:18;98992.47;;;5.02;100.00
72061;BME280;59925;52.136;5.420;2024-02-23T09:08:46;98998.59;;;5.02;100.00
72061;BME280;59925;52.136;5.420;2024-02-23T09:11:12;99000.66;;;5.05;100.00
72061;BME280;59925;52.136;5.420;2024-02-23T09:13:41;99008.09;;;5.09;100.00
72061;BME280;59925;52.136;5.420;2024-02-23T09:16:08;99011.53;;;5.09;100.00
72061;BME280;59925;52.136;5.420;2024-02-23T09:18:35;99023.25;;;5.08;100.00
72061;BME280;59925;52.136;5.420;2024-02-23T09:21:02;99010.75;;;5.09;100.00
72061;BME280;59925;52.136;5.420;2024-02-23T09:23:29;99014.97;;;5.10;100.00
72061;BME280;59925;52.136;5.420;2024-02-23T09:25:55;99017.63;;;5.10;100.00
72061;BME280;59925;52.136;5.420;2024-02-23T09:28:22;99011.50;;;5.14;100.00
72061;BME280;59925;52.136;5.420;2024-02-23T09:30:49;99014.91;;;5.20;100.00
72061;BME280;59925;52.136;5.420;2024-02-23T09:33:15;99015.41;;;5.22;100.00
72061;BME280;59925;52.136;5.420;2024-02-23T09:35:42;99017.00;;;5.23;100.00
72061;BME280;59925;52.136;5.420;2024-02-23T09:38:08;99029.22;;;5.24;100.00
72061;BME280;59925;52.136;5.420;2024-02-23T09:40:35;99015.13;;;5.24;100.00
72061;BME280;59925;52.136;5.420;2024-02-23T09:43:03;99013.28;;;5.24;100.00
72061;BME280;59925;52.136;5.420;2024-02-23T09:45:32;99021.25;;;5.24;100.00
72061;BME280;59925;52.136;5.420;2024-02-23T09:48:00;99028.16;;;5.25;100.00
72061;BME280;59925;52.136;5.420;2024-02-23T09:50:30;99027.84;;;5.27;100.00
72061;BME280;59925;52.136;5.420;2024-02-23T09:52:58;99049.34;;;5.30;100.00
72061;BME280;59925;52.136;5.420;2024-02-23T09:55:25;99037.94;;;5.30;100.00
72061;BME280;59925;52.136;5.420;2024-02-23T09:57:55;99043.25;;;5.30;100.00
72061;BME280;59925;52.136;5.420;2024-02-23T10:00:24;99050.94;;;5.31;100.00
72061;BME280;59925;52.136;5.420;2024-02-23T10:02:50;99047.72;;;5.34;100.00
72061;BME280;59925;52.136;5.420;2024-02-23T10:05:17;99047.41;;;5.41;100.00
72061;BME280;59925;52.136;5.420;2024-02-23T10:07:45;99043.03;;;5.56;100.00
72061;BME280;59925;52.136;5.420;2024-02-23T10:10:13;99036.53;;;5.67;100.00
72061;BME280;59925;52.136;5.420;2024-02-23T10:12:39;99044.34;;;5.88;100.00
72061;BME280;59925;52.136;5.420;2024-02-23T10:15:06;99033.44;;;5.84;100.00
72061;BME280;59925;52.136;5.420;2024-02-23T10:17:33;99050.47;;;5.83;100.00
72061;BME280;59925;52.136;5.420;2024-02-23T10:20:02;99042.78;;;5.81;100.00
72061;BME280;59925;52.136;5.420;2024-02-23T10:22:32;99044.09;;;5.84;100.00
72061;BME280;59925;52.136;5.420;2024-02-23T10:24:59;99048.91;;;5.82;100.00
72061;BME280;59925;52.136;5.420;2024-02-23T10:27:25;99057.38;;;5.84;100.00
72061;BME280;59925;52.136;5.420;2024-02-23T10:29:52;99053.38;;;5.87;100.00
72061;BME280;59925;52.136;5.420;2024-02-23T10:32:20;99055.75;;;5.88;100.00
72061;BME280;59925;52.136;5.420;2024-02-23T10:34:52;99065.66;;;5.82;100.00
72061;BME280;59925;52.136;5.420;2024-02-23T10:37:20;99064.06;;;5.81;100.00
72061;BME280;59925;52.136;5.420;2024-02-23T10:39:50;99075.00;;;5.80;100.00
72061;BME280;59925;52.136;5.420;2024-02-23T10:42:21;99066.50;;;5.78;100.00
72061;BME280;59925;52.136;5.420;2024-02-23T10:44:50;99085.38;;;5.76;100.00
72061;BME280;59925;52.136;5.420;2024-02-23T10:47:17;99097.88;;;5.76;100.00
72061;BME280;59925;52.136;5.420;2024-02-23T10:49:46;99078.25;;;5.72;100.00
72061;BME280;59925;52.136;5.420;2024-02-23T10:52:14;99080.91;;;5.72;100.00
72061;BME280;59925;52.136;5.420;2024-02-23T10:54:41;99113.31;;;5.74;100.00
72061;BME280;59925;52.136;5.420;2024-02-23T10:57:13;99104.00;;;5.76;100.00
72061;BME280;59925;52.136;5.420;2024-02-23T10:59:45;99095.69;;;5.83;100.00
72061;BME280;59925;52.136;5.420;2024-02-23T11:02:14;99106.06;;;5.85;100.00
72061;BME280;59925;52.136;5.420;2024-02-23T11:04:48;99097.69;;;5.96;100.00
72061;BME280;59925;52.136;5.420;2024-02-23T11:07:19;99090.84;;;6.20;100.00
72061;BME280;59925;52.136;5.420;2024-02-23T11:09:53;99122.94;;;6.28;100.00
72061;BME280;59925;52.136;5.420;2024-02-23T11:12:25;99104.28;;;6.34;100.00
72061;BME280;59925;52.136;5.420;2024-02-23T11:14:59;99099.84;;;6.48;100.00
72061;BME280;59925;52.136;5.420;2024-02-23T11:17:27;99107.75;;;6.53;100.00
72061;BME280;59925;52.136;5.420;2024-02-23T11:19:56;99096.03;;;6.54;100.00
72061;BME280;59925;52.136;5.420;2024-02-23T11:22:33;99108.28;;;6.55;100.00
72061;BME280;59925;52.136;5.420;2024-02-23T11:25:07;99115.06;;;6.67;100.00
72061;BME280;59925;52.136;5.420;2024-02-23T11:27:37;99092.47;;;6.83;100.00
72061;BME280;59925;52.136;5.420;2024-02-23T11:30:06;99101.97;;;6.89;100.00
72061;BME280;59925;52.136;5.420;2024-02-23T11:32:42;99099.81;;;6.92;100.00
72061;BME280;59925;52.136;5.420;2024-02-23T11:35:11;99094.94;;;6.99;100.00
72061;BME280;59925;52.136;5.420;2024-02-23T11:37:48;99088.59;;;7.14;100.00
72061;BME280;59925;52.136;5.420;2024-02-23T11:40:17;99111.91;;;7.22;100.00
72061;BME280;59925;52.136;5.420;2024-02-23T11:42:44;99089.94;;;7.30;100.00
72061;BME280;59925;52.136;5.420;2024-02-23T11:45:10;99096.81;;;7.83;100.00
72061;BME280;59925;52.136;5.420;2024-02-23T11:47:37;99106.91;;;8.01;96.68
72061;BME280;59925;52.136;5.420;2024-02-23T11:50:09;99109.00;;;7.90;97.13
72061;BME280;59925;52.136;5.420;2024-02-23T11:52:37;99108.66;;;7.77;98.47
72061;BME280;59925;52.136;5.420;2024-02-23T11:55:05;99118.00;;;7.61;97.41
72061;BME280;59925;52.136;5.420;2024-02-23T11:57:35;99123.50;;;7.50;97.69
72061;BME280;59925;52.136;5.420;2024-02-23T12:00:13;99106.78;;;7.45;99.12
72061;BME280;59925;52.136;5.420;2024-02-23T12:02:40;99109.66;;;7.48;99.97
72061;BME280;59925;52.136;5.420;2024-02-23T12:05:07;99120.38;;;7.43;98.28
72061;BME280;59925;52.136;5.420;2024-02-23T12:07:34;99125.31;;;7.36;97.51
72061;BME280;59925;52.136;5.420;2024-02-23T12:10:01;99119.19;;;7.35;98.55
72061;BME280;59925;52.136;5.420;2024-02-23T12:12:29;99114.81;;;7.26;97.69
72061;BME280;59925;52.136;5.420;2024-02-23T12:14:56;99129.84;;;7.16;98.29
72061;BME280;59925;52.136;5.420;2024-02-23T12:17:23;99117.75;;;7.24;99.67
72061;BME280;59925;52.136;5.420;2024-02-23T12:19:50;99116.09;;;7.28;99.01
72061;BME280;59925;52.136;5.420;2024-02-23T12:22:24;99122.44;;;7.32;99.49
72061;BME280;59925;52.136;5.420;2024-02-23T12:24:51;99116.81;;;7.34;99.24
72061;BME280;59925;52.136;5.420;2024-02-23T12:27:18;99121.63;;;7.32;98.58
72061;BME280;59925;52.136;5.420;2024-02-23T12:29:52;99115.06;;;7.43;98.18
72061;BME280;59925;52.136;5.420;2024-02-23T12:32:22;99127.38;;;7.58;98.43
72061;BME280;59925;52.136;5.420;2024-02-23T12:34:49;99118.31;;;7.59;98.59
72061;BME280;59925;52.136;5.420;2024-02-23T12:37:16;99131.84;;;7.63;97.61
72061;BME280;59925;52.136;5.420;2024-02-23T12:39:46;99129.69;;;7.65;97.79
72061;BME280;59925;52.136;5.420;2024-02-23T12:42:12;99130.66;;;7.69;97.68
72061;BME280;59925;52.136;5.420;2024-02-23T12:44:39;99129.94;;;7.63;96.40
72061;BME280;59925;52.136;5.420;2024-02-23T12:47:05;99124.84;;;7.67;96.14
72061;BME280;59925;52.136;5.420;2024-02-23T12:49:32;99134.03;;;7.75;95.72
72061;BME280;59925;52.136;5.420;2024-02-23T12:51:59;99147.81;;;7.82;95.70
72061;BME280;59925;52.136;5.420;2024-02-23T12:54:25;99141.81;;;7.71;94.01
72061;BME280;59925;52.136;5.420;2024-02-23T12:56:52;99141.44;;;7.64;94.57
72061;BME280;59925;52.136;5.420;2024-02-23T12:59:18;99134.00;;;7.61;94.58
72061;BME280;59925;52.136;5.420;2024-02-23T13:01:45;99139.75;;;7.68;96.11
72061;BME280;59925;52.136;5.420;2024-02-23T13:04:14;99145.84;;;8.02;95.07